createdAt,value
2019-04-07T00:02:25.669Z,21.63
2019-04-07T00:04:55.774Z,21.70
2019-04-07T00:07:27.484Z,19.97
2019-04-07T00:09:57.540Z,20.47
2019-04-07T00:12:27.729Z,20.37
2019-04-07T00:14:57.810Z,21.27
2019-04-07T00:17:27.530Z,21.83
2019-04-07T00:19:57.001Z,21.80
2019-04-07T00:22:27.001Z,21.37
2019-04-07T00:24:56.469Z,20.67
2019-04-07T00:27:26.025Z,20.80
2019-04-07T00:29:55.591Z,20.33
2019-04-07T00:32:25.077Z,20.73
2019-04-07T00:34:55.270Z,20.07
2019-04-07T00:37:24.920Z,21.07
2019-04-07T00:39:54.557Z,21.37
2019-04-07T00:42:24.768Z,20.77
2019-04-07T00:44:55.604Z,20.13
2019-04-07T00:47:25.167Z,19.47
2019-04-07T00:49:54.611Z,20.97
2019-04-07T00:52:24.857Z,21.00
2019-04-07T00:54:54.605Z,19.53
2019-04-07T00:57:24.124Z,20.50
2019-04-07T00:59:54.060Z,20.13
2019-04-07T01:02:24.426Z,20.03
2019-04-07T01:04:54.214Z,19.80
2019-04-07T01:07:24.536Z,19.97
2019-04-07T01:09:54.237Z,18.90
2019-04-07T01:12:24.758Z,19.73
2019-04-07T01:14:54.523Z,19.63
2019-04-07T01:17:24.405Z,19.90
2019-04-07T01:19:54.946Z,19.40
2019-04-07T01:22:24.549Z,18.83
2019-04-07T01:24:54.057Z,19.57
2019-04-07T01:27:24.640Z,18.50
2019-04-07T01:29:54.486Z,18.70
2019-04-07T01:32:24.099Z,17.43
2019-04-07T01:34:53.519Z,18.57
2019-04-07T01:37:23.238Z,18.57
2019-04-07T01:39:53.738Z,18.20
2019-04-07T01:42:36.737Z,19.17
2019-04-07T01:45:34.527Z,19.53
2019-04-07T01:48:26.808Z,18.83
2019-04-07T01:51:11.879Z,18.03
2019-04-07T01:53:58.921Z,17.47
2019-04-07T01:56:43.953Z,18.57
2019-04-07T01:59:33.478Z,19.67
2019-04-07T02:02:34.112Z,19.47
2019-04-07T02:05:10.847Z,17.13
2019-04-07T02:08:02.057Z,17.17
2019-04-07T02:10:46.979Z,17.63
2019-04-07T02:13:38.254Z,17.80
2019-04-07T02:16:42.035Z,16.93
2019-04-07T02:19:37.140Z,17.60
2019-04-07T02:25:39.422Z,18.27
2019-04-07T02:28:30.829Z,18.73
2019-04-07T02:31:38.204Z,19.70
2019-04-07T02:34:36.032Z,17.77
2019-04-07T02:37:27.888Z,16.83
2019-04-07T02:40:11.811Z,18.03
2019-04-07T02:42:49.149Z,19.53
2019-04-07T02:45:43.249Z,19.27
2019-04-07T02:48:20.365Z,20.77
2019-04-07T02:51:09.618Z,20.03
2019-04-07T02:54:09.848Z,20.77
2019-04-07T02:56:48.633Z,20.30
2019-04-07T02:59:46.408Z,19.53
2019-04-07T03:02:25.042Z,19.50
2019-04-07T03:05:13.809Z,18.20
2019-04-07T03:08:05.744Z,17.97
2019-04-07T03:10:53.453Z,18.87
2019-04-07T03:13:49.027Z,19.07
2019-04-07T03:16:32.332Z,19.67
2019-04-07T03:19:13.158Z,21.30
2019-04-07T03:21:56.045Z,20.47
2019-04-07T03:24:38.483Z,21.17
2019-04-07T03:27:38.817Z,19.43
2019-04-07T03:30:28.390Z,20.00
2019-04-07T03:33:27.253Z,20.80
2019-04-07T03:36:05.606Z,21.43
2019-04-07T03:38:53.734Z,22.20
2019-04-07T03:41:35.093Z,20.93
2019-04-07T03:44:24.339Z,20.40
2019-04-07T03:47:12.891Z,20.60
2019-04-07T03:50:07.214Z,20.70
2019-04-07T03:52:54.457Z,20.93
2019-04-07T03:55:38.528Z,20.60
2019-04-07T03:58:26.000Z,22.03
2019-04-07T04:01:33.306Z,21.60
2019-04-07T04:04:24.353Z,22.87
2019-04-07T04:06:56.959Z,22.00
2019-04-07T04:09:48.027Z,21.70
2019-04-07T04:12:30.150Z,21.73
2019-04-07T04:15:15.505Z,20.73
2019-04-07T04:17:45.711Z,21.67
2019-04-07T04:20:16.110Z,21.73
2019-04-07T04:22:46.418Z,23.33
2019-04-07T04:25:17.102Z,22.47
2019-04-07T04:27:46.741Z,23.83
2019-04-07T04:30:16.909Z,23.73
2019-04-07T04:32:46.452Z,24.20
2019-04-07T04:35:16.927Z,23.07
2019-04-07T04:37:51.439Z,23.77
2019-04-07T04:40:17.848Z,22.97
2019-04-07T04:42:47.300Z,23.43
2019-04-07T04:45:16.666Z,23.90
2019-04-07T04:47:46.409Z,26.33
2019-04-07T04:50:16.813Z,24.50
2019-04-07T04:52:46.978Z,25.73
2019-04-07T04:55:16.692Z,24.87
2019-04-07T04:57:46.423Z,24.70
2019-04-07T05:00:15.987Z,24.27
2019-04-07T05:02:45.709Z,25.50
2019-04-07T05:05:15.277Z,25.53
2019-04-07T05:07:55.228Z,26.07
2019-04-07T05:10:16.974Z,23.37
2019-04-07T05:12:47.181Z,22.47
2019-04-07T05:15:17.445Z,24.07
2019-04-07T05:17:47.175Z,23.63
2019-04-07T05:20:17.287Z,25.67
2019-04-07T05:22:47.547Z,25.57
2019-04-07T05:25:17.376Z,26.30
2019-04-07T05:27:46.944Z,28.63
2019-04-07T05:30:16.831Z,25.77
2019-04-07T05:32:46.918Z,25.90
2019-04-07T05:35:16.410Z,23.23
2019-04-07T05:37:45.959Z,22.63
2019-04-07T05:40:15.509Z,27.07
2019-04-07T05:42:45.473Z,24.87
2019-04-07T05:45:15.073Z,29.90
2019-04-07T05:47:49.731Z,30.00
2019-04-07T05:50:15.702Z,28.83
2019-04-07T05:52:45.187Z,26.80
2019-04-07T05:55:15.191Z,27.20
2019-04-07T05:57:45.373Z,25.47
2019-04-07T06:00:16.647Z,24.27
2019-04-07T06:02:47.102Z,21.83
2019-04-07T06:05:18.399Z,21.80
2019-04-07T06:07:48.018Z,21.27
2019-04-07T06:10:18.182Z,20.50
2019-04-07T06:12:48.287Z,18.20
2019-04-07T06:15:22.045Z,17.67
2019-04-07T06:17:50.095Z,16.63
2019-04-07T06:20:19.697Z,16.37
2019-04-07T06:22:52.754Z,16.37
2019-04-07T06:25:20.870Z,16.13
2019-04-07T06:27:51.044Z,13.60
2019-04-07T06:30:22.265Z,14.00
2019-04-07T06:32:51.680Z,15.37
2019-04-07T06:35:21.076Z,13.67
2019-04-07T06:37:50.837Z,12.87
2019-04-07T06:40:21.976Z,13.17
2019-04-07T06:42:51.502Z,12.50
2019-04-07T06:45:24.617Z,13.00
2019-04-07T06:47:56.718Z,12.53
2019-04-07T06:50:47.686Z,23.97
2019-04-07T06:53:18.893Z,29.33
2019-04-07T06:56:00.108Z,26.43
2019-04-07T06:58:56.236Z,16.33
2019-04-07T07:01:56.657Z,15.70
2019-04-07T07:04:49.745Z,11.40
2019-04-07T07:07:38.894Z,12.10
2019-04-07T07:10:37.791Z,11.27
2019-04-07T07:13:30.787Z,10.37
2019-04-07T07:15:58.856Z,10.53
2019-04-07T07:18:42.663Z,9.70
2019-04-07T07:21:24.994Z,9.53
2019-04-07T07:23:54.432Z,10.80
2019-04-07T07:26:24.482Z,9.80
2019-04-07T07:28:54.315Z,10.43
2019-04-07T07:31:25.470Z,9.37
2019-04-07T07:33:55.022Z,9.37
2019-04-07T07:36:24.403Z,9.10
2019-04-07T07:38:59.002Z,9.83
2019-04-07T07:41:25.384Z,9.23
2019-04-07T07:43:54.911Z,9.50
2019-04-07T07:46:24.543Z,8.93
2019-04-07T07:49:08.926Z,9.23
2019-04-07T07:51:39.587Z,9.67
2019-04-07T07:54:09.944Z,9.50
2019-04-07T07:56:43.263Z,9.17
2019-04-07T07:59:26.120Z,9.53
2019-04-07T08:01:55.710Z,17.03
2019-04-07T08:04:26.730Z,9.33
2019-04-07T08:06:56.958Z,8.37
2019-04-07T08:09:35.872Z,8.80
2019-04-07T08:12:05.551Z,8.07
2019-04-07T08:14:36.059Z,8.83
2019-04-07T08:17:05.503Z,8.00
2019-04-07T08:19:34.811Z,11.23
2019-04-07T08:22:05.631Z,9.50
2019-04-07T08:24:36.207Z,8.87
2019-04-07T08:27:06.384Z,9.07
2019-04-07T08:29:37.904Z,11.07
2019-04-07T08:32:07.708Z,9.07
2019-04-07T08:34:37.317Z,7.60
2019-04-07T08:37:06.707Z,8.03
2019-04-07T08:39:36.556Z,7.70
2019-04-07T08:42:10.663Z,13.00
2019-04-07T08:44:38.022Z,7.42
2019-04-07T08:47:11.427Z,7.40
2019-04-07T08:49:38.515Z,8.33
2019-04-07T08:52:10.252Z,8.03
2019-04-07T08:54:39.093Z,8.23
2019-04-07T08:57:08.594Z,8.93
2019-04-07T08:59:42.417Z,7.60
2019-04-07T09:02:09.067Z,7.10
2019-04-07T09:04:38.375Z,11.15
2019-04-07T09:07:08.026Z,15.55
2019-04-07T09:09:44.801Z,7.37
2019-04-07T09:12:09.280Z,8.70
2019-04-07T09:14:40.735Z,6.97
2019-04-07T09:17:37.373Z,7.28
2019-04-07T09:20:29.181Z,7.60
2019-04-07T09:23:11.354Z,5.67
2019-04-07T09:25:58.405Z,6.42
2019-04-07T09:28:34.258Z,6.62
2019-04-07T09:31:23.292Z,6.25
2019-04-07T09:34:20.649Z,7.87
2019-04-07T09:37:13.866Z,6.05
2019-04-07T09:40:05.753Z,6.90
2019-04-07T09:42:57.392Z,5.97
2019-04-07T09:46:12.543Z,5.20
2019-04-07T09:49:03.810Z,6.33
2019-04-07T09:51:41.501Z,6.08
2019-04-07T09:54:29.214Z,5.85
2019-04-07T09:57:21.192Z,6.28
2019-04-07T10:00:09.764Z,5.90
2019-04-07T10:02:56.483Z,4.80
2019-04-07T10:05:47.763Z,5.22
2019-04-07T10:08:45.537Z,5.20
2019-04-07T10:11:37.406Z,5.20
2019-04-07T10:14:21.859Z,5.92
2019-04-07T10:17:16.545Z,4.87
2019-04-07T10:20:05.143Z,9.28
2019-04-07T10:22:44.097Z,5.00
2019-04-07T10:25:31.601Z,17.45
2019-04-07T10:28:20.665Z,4.65
2019-04-07T10:31:12.555Z,4.87
2019-04-07T10:34:03.929Z,4.28
2019-04-07T10:36:52.261Z,3.90
2019-04-07T10:39:30.686Z,3.60
2019-04-07T10:42:18.041Z,3.35
2019-04-07T10:45:18.509Z,3.95
2019-04-07T10:48:01.370Z,3.80
2019-04-07T10:50:55.549Z,3.85
2019-04-07T10:53:39.435Z,3.47
2019-04-07T10:56:32.047Z,3.72
2019-04-07T10:59:10.524Z,4.00
2019-04-07T11:01:57.877Z,3.25
2019-04-07T11:04:45.107Z,3.20
2019-04-07T11:07:32.782Z,4.78
2019-04-07T11:10:32.580Z,9.73
2019-04-07T11:13:06.626Z,3.58
2019-04-07T11:15:48.734Z,3.40
2019-04-07T11:18:36.395Z,3.35
2019-04-07T11:21:23.939Z,7.90
2019-04-07T11:24:22.080Z,3.33
2019-04-07T11:27:09.303Z,3.50
2019-04-07T11:30:03.887Z,3.02
2019-04-07T11:32:44.597Z,3.62
2019-04-07T11:35:22.258Z,3.87
2019-04-07T11:38:19.828Z,2.70
2019-04-07T11:41:06.709Z,2.60
2019-04-07T11:44:00.857Z,3.10
2019-04-07T11:46:51.986Z,2.85
2019-04-07T11:49:27.597Z,2.77
2019-04-07T11:52:02.309Z,2.60
2019-04-07T11:55:02.640Z,4.53
2019-04-07T11:57:55.086Z,2.47
2019-04-07T12:00:51.426Z,4.15
2019-04-07T12:03:28.907Z,2.70
2019-04-07T12:06:25.520Z,6.08
2019-04-07T12:09:13.083Z,2.65
2019-04-07T12:12:00.179Z,2.30
2019-04-07T12:14:45.528Z,3.83
2019-04-07T12:17:25.918Z,2.37
2019-04-07T12:20:16.921Z,2.58
2019-04-07T12:23:25.427Z,2.67
2019-04-07T12:26:19.028Z,3.12
2019-04-07T12:29:07.976Z,2.20
2019-04-07T12:32:05.663Z,2.58
2019-04-07T12:34:46.608Z,2.77
2019-04-07T12:37:44.589Z,18.27
2019-04-07T12:40:39.978Z,4.10
2019-04-07T12:43:21.742Z,2.95
2019-04-07T12:45:56.911Z,4.45
2019-04-07T12:48:47.957Z,6.22
2019-04-07T12:51:52.454Z,3.27
2019-04-07T12:54:27.838Z,3.10
2019-04-07T12:57:25.253Z,2.92
2019-04-07T13:00:23.926Z,2.75
2019-04-07T13:03:08.643Z,2.40
2019-04-07T13:06:06.363Z,2.75
2019-04-07T13:08:58.477Z,2.35
2019-04-07T13:11:49.743Z,2.33
2019-04-07T13:14:40.011Z,2.25
2019-04-07T13:17:28.088Z,1.80
2019-04-07T13:20:07.351Z,1.90
2019-04-07T13:23:13.814Z,2.10
2019-04-07T13:26:04.553Z,3.47
2019-04-07T13:28:45.998Z,2.10
2019-04-07T13:31:23.349Z,1.55
2019-04-07T13:34:12.683Z,1.70
2019-04-07T13:36:53.955Z,2.30
2019-04-07T13:39:47.056Z,2.42
2019-04-07T13:42:33.994Z,1.32
2019-04-07T13:45:31.288Z,1.27
2019-04-07T13:48:20.017Z,1.60
2019-04-07T13:51:07.563Z,1.80
2019-04-07T13:53:57.742Z,2.70
2019-04-07T13:56:48.140Z,1.50
2019-04-07T13:59:33.808Z,1.20
2019-04-07T14:02:25.040Z,1.40
2019-04-07T14:05:11.155Z,1.17
2019-04-07T14:07:54.474Z,1.80
2019-04-07T14:10:42.028Z,2.10
2019-04-07T14:13:33.812Z,1.77
2019-04-07T14:16:26.918Z,2.40
2019-04-07T14:19:06.628Z,1.57
2019-04-07T14:22:07.024Z,1.72
2019-04-07T14:24:53.795Z,5.12
2019-04-07T14:27:40.299Z,1.50
2019-04-07T14:30:29.156Z,1.50
2019-04-07T14:33:28.184Z,1.82
2019-04-07T14:36:28.385Z,2.40
2019-04-07T14:39:08.510Z,1.40
2019-04-07T14:41:48.714Z,5.72
2019-04-07T14:44:41.583Z,1.70
2019-04-07T14:47:33.510Z,1.40
2019-04-07T14:50:14.556Z,1.92
2019-04-07T14:53:10.988Z,3.30
2019-04-07T14:56:07.571Z,3.08
2019-04-07T14:58:48.359Z,1.90
2019-04-07T15:01:34.818Z,1.30
2019-04-07T15:04:06.427Z,1.47
2019-04-07T15:06:36.633Z,1.62
2019-04-07T15:09:16.402Z,1.55
2019-04-07T15:11:54.883Z,1.40
2019-04-07T15:14:25.343Z,1.70
2019-04-07T15:16:55.693Z,1.47
2019-04-07T15:19:25.373Z,1.60
2019-04-07T15:21:55.611Z,2.40
2019-04-07T15:24:26.094Z,4.17
2019-04-07T15:26:57.730Z,1.40
2019-04-07T15:29:28.896Z,1.53
2019-04-07T15:31:59.845Z,1.60
2019-04-07T15:34:30.731Z,1.40
2019-04-07T15:37:10.350Z,7.72
2019-04-07T15:39:41.619Z,3.60
2019-04-07T15:42:15.301Z,1.77
2019-04-07T15:44:43.937Z,1.83
2019-04-07T15:47:16.885Z,1.30
2019-04-07T15:49:48.459Z,3.13
2019-04-07T15:52:37.009Z,1.53
2019-04-07T15:55:06.760Z,1.60
2019-04-07T15:57:37.193Z,1.50
2019-04-07T16:00:07.896Z,1.40
2019-04-07T16:02:40.872Z,2.53
2019-04-07T16:05:10.483Z,3.10
2019-04-07T16:07:40.696Z,3.63
2019-04-07T16:10:10.234Z,4.30
2019-04-07T16:12:47.299Z,1.70
2019-04-07T16:15:15.834Z,2.00
2019-04-07T16:17:43.845Z,3.17
2019-04-07T16:20:23.261Z,124.40
2019-04-07T16:22:47.681Z,40.87
2019-04-07T16:25:17.443Z,8.20
2019-04-07T16:27:47.623Z,3.60
2019-04-07T16:30:19.153Z,1.60
2019-04-07T16:32:48.695Z,1.50
2019-04-07T16:35:18.396Z,2.20
2019-04-07T16:37:47.939Z,2.30
2019-04-07T16:40:18.468Z,6.13
2019-04-07T16:43:01.915Z,2.00
2019-04-07T16:45:19.250Z,1.67
2019-04-07T16:47:48.613Z,1.50
2019-04-07T16:50:20.285Z,1.80
2019-04-07T16:52:49.700Z,1.50
2019-04-07T16:55:34.980Z,1.80
2019-04-07T16:58:04.790Z,2.30
2019-04-07T17:00:34.508Z,1.80
2019-04-07T17:03:05.507Z,1.50
2019-04-07T17:05:36.208Z,2.17
2019-04-07T17:08:05.988Z,1.70
2019-04-07T17:10:35.485Z,1.60
2019-04-07T17:13:15.301Z,1.50
2019-04-07T17:15:39.490Z,1.60
2019-04-07T17:18:10.470Z,2.20
2019-04-07T17:20:41.166Z,1.67
2019-04-07T17:23:11.157Z,1.60
2019-04-07T17:25:41.722Z,1.60
2019-04-07T17:28:12.895Z,1.60
2019-04-07T17:30:42.287Z,1.77
2019-04-07T17:33:12.351Z,1.43
2019-04-07T17:35:43.605Z,1.70
2019-04-07T17:38:13.887Z,1.70
2019-04-07T17:40:49.216Z,1.67
2019-04-07T17:43:40.596Z,1.87
2019-04-07T17:46:49.134Z,1.80
2019-04-07T17:49:30.898Z,1.90
2019-04-07T17:52:22.062Z,2.00
2019-04-07T17:55:16.376Z,1.80
2019-04-07T17:58:08.900Z,1.50
2019-04-07T18:00:51.778Z,1.60
2019-04-07T18:03:32.925Z,1.60
2019-04-07T18:06:16.921Z,1.73
2019-04-07T18:09:11.711Z,1.50
2019-04-07T18:12:09.267Z,1.70
2019-04-07T18:14:56.962Z,1.70
2019-04-07T18:17:46.131Z,1.90
2019-04-07T18:20:31.577Z,1.87
2019-04-07T18:23:24.743Z,19.93
2019-04-07T18:26:06.218Z,3.00
2019-04-07T18:28:41.242Z,2.43
2019-04-07T18:31:40.246Z,2.40
2019-04-07T18:34:33.345Z,2.00
2019-04-07T18:37:24.761Z,2.23
2019-04-07T18:40:13.287Z,2.10
2019-04-07T18:42:55.663Z,2.13
2019-04-07T18:45:48.343Z,3.00
2019-04-07T18:48:49.428Z,2.50
2019-04-07T18:51:37.522Z,6.10
2019-04-07T18:54:24.883Z,2.73
2019-04-07T18:57:04.045Z,2.73
2019-04-07T18:59:58.674Z,2.40
2019-04-07T19:02:55.770Z,4.40
2019-04-07T19:05:44.659Z,3.00
2019-04-07T19:08:46.300Z,2.73
2019-04-07T19:11:28.551Z,3.20
2019-04-07T19:14:31.566Z,3.10
2019-04-07T19:17:04.979Z,2.87
2019-04-07T19:19:53.547Z,3.60
2019-04-07T19:22:40.427Z,3.13
2019-04-07T19:25:42.702Z,3.10
2019-04-07T19:28:18.939Z,3.17
2019-04-07T19:31:06.579Z,3.03
2019-04-07T19:33:59.824Z,3.30
2019-04-07T19:36:37.980Z,3.20
2019-04-07T19:39:48.920Z,3.00
2019-04-07T19:42:27.410Z,3.40
2019-04-07T19:45:07.292Z,3.40
2019-04-07T19:47:54.925Z,3.37
2019-04-07T19:50:46.995Z,3.83
2019-04-07T19:53:34.644Z,3.87
2019-04-07T19:56:39.812Z,4.03
2019-04-07T19:59:28.910Z,3.47
2019-04-07T20:02:30.530Z,4.03
2019-04-07T20:05:32.213Z,4.10
2019-04-07T20:08:21.598Z,4.00
2019-04-07T20:11:09.741Z,4.03
2019-04-07T20:13:56.357Z,4.50
2019-04-07T20:16:47.512Z,4.30
2019-04-07T20:19:38.585Z,4.00
2019-04-07T20:22:23.071Z,3.40
2019-04-07T20:25:14.568Z,5.90
2019-04-07T20:27:56.120Z,6.13
2019-04-07T20:30:33.815Z,5.20
2019-04-07T20:33:34.487Z,6.93
2019-04-07T20:36:24.919Z,5.30
2019-04-07T20:39:17.606Z,5.67
2019-04-07T20:42:05.993Z,4.43
2019-04-07T20:45:02.746Z,5.30
2019-04-07T20:48:00.271Z,4.50
2019-04-07T20:50:58.346Z,6.47
2019-04-07T20:53:45.546Z,6.40
2019-04-07T20:56:41.935Z,5.90
2019-04-07T20:59:30.757Z,7.93
2019-04-07T21:02:23.292Z,6.27
2019-04-07T21:05:28.295Z,8.63
2019-04-07T21:08:25.940Z,11.40
2019-04-07T21:11:20.464Z,13.10
2019-04-07T21:14:21.028Z,14.27
2019-04-07T21:17:12.111Z,15.40
2019-04-07T21:20:05.389Z,13.23
2019-04-07T21:22:44.028Z,15.57
2019-04-07T21:25:26.473Z,16.27
2019-04-07T21:28:07.729Z,15.87
2019-04-07T21:30:59.220Z,122.63
2019-04-07T21:33:59.577Z,17.83
2019-04-07T21:36:48.434Z,11.97
2019-04-07T21:39:25.907Z,9.27
2019-04-07T21:45:36.881Z,10.07
2019-04-07T21:48:13.824Z,13.37
2019-04-07T21:51:10.727Z,15.67
2019-04-07T21:54:04.064Z,16.83
2019-04-07T21:56:56.026Z,17.03
2019-04-07T21:59:33.841Z,18.80
2019-04-07T22:02:43.704Z,11.50
2019-04-07T22:05:33.562Z,10.47
2019-04-07T22:08:14.636Z,13.03
2019-04-07T22:10:41.598Z,17.33
2019-04-07T22:13:12.119Z,17.57
2019-04-07T22:15:48.303Z,18.27
2019-04-07T22:18:13.137Z,18.37
2019-04-07T22:20:43.248Z,17.00
2019-04-07T22:23:12.840Z,17.83
2019-04-07T22:25:53.948Z,18.10
2019-04-07T22:28:27.657Z,20.20
2019-04-07T22:30:56.001Z,20.30
2019-04-07T22:33:27.495Z,20.17
2019-04-07T22:35:57.498Z,20.00
2019-04-07T22:38:27.380Z,21.00
2019-04-07T22:40:58.391Z,18.27
2019-04-07T22:43:28.285Z,17.27
2019-04-07T22:46:06.245Z,18.57
2019-04-07T22:48:29.467Z,18.43
2019-04-07T22:50:59.121Z,18.60
2019-04-07T22:53:30.937Z,20.13
2019-04-07T22:55:59.576Z,20.77
2019-04-07T22:58:29.736Z,20.37
2019-04-07T23:00:59.521Z,20.73
2019-04-07T23:03:29.251Z,20.00
2019-04-07T23:05:58.829Z,21.00
2019-04-07T23:08:28.533Z,18.20
2019-04-07T23:10:58.079Z,19.00
2019-04-07T23:13:28.005Z,20.67
2019-04-07T23:16:09.977Z,22.63
2019-04-07T23:18:29.630Z,22.30
2019-04-07T23:20:59.850Z,23.37
2019-04-07T23:23:30.878Z,23.07
2019-04-07T23:26:00.576Z,23.33
2019-04-07T23:28:30.638Z,24.10
2019-04-07T23:31:00.293Z,24.23
2019-04-07T23:33:29.831Z,23.90
2019-04-07T23:35:59.732Z,24.83
2019-04-07T23:38:30.323Z,24.43
2019-04-07T23:40:59.862Z,25.03
2019-04-07T23:43:29.301Z,24.50
2019-04-07T23:45:58.749Z,25.23
2019-04-07T23:48:28.439Z,25.83
2019-04-07T23:50:58.256Z,21.93
2019-04-07T23:54:04.375Z,24.47
2019-04-07T23:56:33.933Z,26.13
2019-04-07T23:59:03.802Z,26.93
